Time;durP1;ratioP1;P1;durP2;ratioP2;P2;SDS_P1;SDS_P2;PMS_P1;PMS_P2;Temp;Humidity;BMP_temperature;BMP_pressure;BME280_temperature;BME280_humidity;BME280_pressure;Samples;Min_cycle;Max_cycle;Signal;HPM_P1;HPM_P2
2021/06/24 00:00:56;;;;;;;3.80;2.50;;;17.60;70.30;;;;;;3577978;40;20041;-79
2021/06/24 00:03:26;;;;;;;3.25;2.60;;;17.50;70.90;;;;;;3567085;40;20036;-77
2021/06/24 00:05:53;;;;;;;4.03;2.30;;;17.40;71.10;;;;;;3577332;40;20136;-76
2021/06/24 00:08:20;;;;;;;8.52;2.50;;;17.40;71.40;;;;;;3575446;40;20118;-77
2021/06/24 00:10:46;;;;;;;4.38;2.28;;;17.40;71.60;;;;;;3574791;40;20035;-72
2021/06/24 00:13:13;;;;;;;4.45;2.50;;;17.30;71.60;;;;;;3572344;40;20496;-73
2021/06/24 00:15:39;;;;;;;3.40;2.45;;;17.30;71.90;;;;;;3571569;40;20187;-72
2021/06/24 00:18:07;;;;;;;4.40;2.83;;;17.20;72.30;;;;;;3572519;40;20865;-73
2021/06/24 00:20:34;;;;;;;3.83;2.50;;;17.20;72.70;;;;;;3574207;40;20141;-74
2021/06/24 00:22:59;;;;;;;5.65;2.90;;;17.10;72.80;;;;;;3576679;40;20024;-72
2021/06/24 00:25:25;;;;;;;3.50;2.97;;;17.10;73.80;;;;;;3568064;40;20028;-73
2021/06/24 00:27:51;;;;;;;6.93;3.03;;;17.00;73.10;;;;;;3579201;40;20442;-73
2021/06/24 00:30:18;;;;;;;5.40;2.97;;;17.00;73.20;;;;;;3579304;40;20029;-73
2021/06/24 00:32:43;;;;;;;3.72;2.78;;;16.90;73.30;;;;;;3580856;40;20700;-72
2021/06/24 00:35:09;;;;;;;6.55;3.00;;;16.90;73.60;;;;;;3575092;40;20082;-73
2021/06/24 00:37:35;;;;;;;6.63;2.83;;;16.90;73.70;;;;;;3574599;40;20035;-72
2021/06/24 00:40:05;;;;;;;5.25;2.95;;;16.90;74.00;;;;;;3576716;40;20635;-72
2021/06/24 00:42:31;;;;;;;5.45;2.97;;;16.80;74.30;;;;;;3570440;40;20306;-73
2021/06/24 00:44:57;;;;;;;4.95;2.70;;;16.80;74.30;;;;;;3565177;40;20025;-72
2021/06/24 00:47:24;;;;;;;5.35;2.90;;;16.70;74.40;;;;;;3570004;40;20032;-72
2021/06/24 00:49:49;;;;;;;4.80;2.92;;;16.70;74.60;;;;;;3572382;40;20294;-72
2021/06/24 00:52:16;;;;;;;4.20;2.78;;;16.70;74.60;;;;;;3564011;40;20066;-72
2021/06/24 00:54:42;;;;;;;3.92;2.67;;;16.70;74.70;;;;;;3565229;40;20920;-72
2021/06/24 00:57:08;;;;;;;5.43;3.28;;;16.70;74.80;;;;;;3575675;40;20040;-72
2021/06/24 00:59:35;;;;;;;5.82;3.13;;;16.70;74.90;;;;;;3577179;40;20033;-72
2021/06/24 01:02:03;;;;;;;5.65;3.25;;;16.60;75.30;;;;;;3570381;40;20073;-72
2021/06/24 01:04:29;;;;;;;4.07;2.90;;;16.60;75.60;;;;;;3569920;40;20124;-72
2021/06/24 01:06:58;;;;;;;4.63;3.13;;;16.60;75.50;;;;;;3579871;40;20400;-72
2021/06/24 01:09:26;;;;;;;5.95;3.30;;;16.60;75.70;;;;;;3577550;40;20040;-72
2021/06/24 01:11:54;;;;;;;4.93;3.28;;;16.60;75.70;;;;;;3574598;40;20036;-72
2021/06/24 01:14:21;;;;;;;7.00;2.85;;;16.60;75.60;;;;;;3564283;40;20045;-72
2021/06/24 01:16:47;;;;;;;5.55;3.40;;;16.60;75.70;;;;;;3573105;40;20133;-73
2021/06/24 01:19:17;;;;;;;6.75;3.65;;;16.60;75.70;;;;;;3562820;40;20041;-72
2021/06/24 01:21:44;;;;;;;6.80;3.65;;;16.60;76.10;;;;;;3570664;40;20029;-72
2021/06/24 01:24:10;;;;;;;5.63;3.50;;;16.50;76.30;;;;;;3561797;40;20040;-72
2021/06/24 01:26:38;;;;;;;6.05;3.45;;;16.50;76.30;;;;;;3565584;40;20029;-72
2021/06/24 01:29:04;;;;;;;3.95;3.33;;;16.50;76.30;;;;;;3573918;40;20074;-72
2021/06/24 01:31:30;;;;;;;4.80;3.22;;;16.50;76.30;;;;;;3564933;40;20056;-72
2021/06/24 01:33:56;;;;;;;4.95;3.55;;;16.50;76.40;;;;;;3577072;40;20021;-72
2021/06/24 01:36:22;;;;;;;3.85;3.05;;;16.50;76.50;;;;;;3578045;40;20032;-72
2021/06/24 01:38:48;;;;;;;5.85;3.60;;;16.50;77.40;;;;;;3569925;40;20106;-72
2021/06/24 01:41:22;;;;;;;5.43;3.58;;;16.50;76.60;;;;;;3578079;40;20096;-72
2021/06/24 01:43:49;;;;;;;4.05;3.30;;;16.50;76.70;;;;;;3575805;40;20033;-71
2021/06/24 01:46:15;;;;;;;3.90;3.20;;;16.50;76.60;;;;;;3574720;40;20107;-72
2021/06/24 01:48:41;;;;;;;6.63;3.45;;;16.50;76.60;;;;;;3577283;40;20029;-72
2021/06/24 01:51:08;;;;;;;4.20;3.30;;;16.60;76.70;;;;;;3564612;40;20330;-72
2021/06/24 01:53:35;;;;;;;5.95;3.08;;;16.60;76.70;;;;;;3576162;40;20033;-72
2021/06/24 01:56:04;;;;;;;4.90;3.40;;;16.60;76.50;;;;;;3569308;40;20037;-72
2021/06/24 01:58:33;;;;;;;5.07;3.28;;;16.60;76.60;;;;;;3571090;40;20642;-70
2021/06/24 02:01:08;;;;;;;4.47;3.38;;;16.60;76.50;;;;;;3574670;40;20025;-70
2021/06/24 02:03:40;;;;;;;4.63;3.50;;;16.70;76.60;;;;;;3564927;40;20056;-70
2021/06/24 02:06:08;;;;;;;6.18;3.80;;;16.70;76.40;;;;;;3574562;40;20069;-70
2021/06/24 02:08:36;;;;;;;3.83;2.95;;;16.70;76.50;;;;;;3573535;40;20115;-70
2021/06/24 02:11:21;;;;;;;;;;;16.70;76.60;;;;;;3557597;40;20077;-70
2021/06/24 02:13:52;;;;;;;6.82;4.00;;;16.70;76.60;;;;;;3570390;40;19933;-70
2021/06/24 02:16:18;;;;;;;4.90;3.67;;;16.70;76.80;;;;;;3569480;40;20063;-70
2021/06/24 02:18:44;;;;;;;5.38;3.65;;;16.70;76.70;;;;;;3567653;40;20068;-70
2021/06/24 02:21:15;;;;;;;4.80;3.50;;;16.70;76.90;;;;;;3576821;40;20085;-70
2021/06/24 02:23:48;;;;;;;5.15;3.60;;;16.70;76.80;;;;;;3564623;40;20088;-70
2021/06/24 02:26:23;;;;;;;4.95;3.25;;;16.70;77.00;;;;;;3562633;40;20029;-70
2021/06/24 02:28:57;;;;;;;5.25;3.80;;;16.70;77.10;;;;;;3564623;40;20053;-70
2021/06/24 02:31:27;;;;;;;7.60;3.95;;;16.70;77.20;;;;;;3574406;40;20032;-70
2021/06/24 02:33:55;;;;;;;7.10;3.65;;;16.70;77.30;;;;;;3564896;40;20037;-70
2021/06/24 02:36:45;;;;;;;5.38;3.80;;;16.70;77.30;;;;;;3568085;40;20048;-70
2021/06/24 02:39:12;;;;;;;8.07;3.65;;;16.80;77.40;;;;;;3563202;40;20036;-70
2021/06/24 02:41:39;;;;;;;6.68;4.47;;;16.70;77.20;;;;;;3577234;40;20033;-70
2021/06/24 02:44:06;;;;;;;5.10;3.85;;;16.80;77.40;;;;;;3562263;40;20069;-70
2021/06/24 02:46:33;;;;;;;5.47;3.90;;;16.80;77.10;;;;;;3579182;40;20037;-70
2021/06/24 02:48:59;;;;;;;7.45;3.90;;;16.90;77.20;;;;;;3569319;40;20051;-70
2021/06/24 02:51:40;;;;;;;6.15;3.72;;;16.90;77.80;;;;;;3568071;40;20048;-70
2021/06/24 02:54:17;;;;;;;5.60;3.78;;;16.90;77.10;;;;;;3577158;40;20048;-70
2021/06/24 02:56:44;;;;;;;5.63;3.75;;;16.90;77.30;;;;;;3579619;40;20039;-70
2021/06/24 02:59:28;;;;;;;8.32;3.95;;;16.90;77.40;;;;;;3574551;40;20059;-70
2021/06/24 03:01:56;;;;;;;5.70;4.13;;;16.80;77.40;;;;;;3571490;40;20024;-70
2021/06/24 03:04:32;;;;;;;9.48;4.18;;;16.80;77.40;;;;;;3570962;40;20049;-71
2021/06/24 03:07:00;;;;;;;5.22;3.85;;;16.80;77.30;;;;;;3569323;40;20036;-70
2021/06/24 03:09:29;;;;;;;7.25;4.28;;;16.90;77.40;;;;;;3567804;40;20040;-70
2021/06/24 03:11:55;;;;;;;7.03;3.95;;;16.90;77.50;;;;;;3566133;40;20029;-70
2021/06/24 03:14:22;;;;;;;4.97;4.22;;;16.90;77.30;;;;;;3566274;40;20069;-70
2021/06/24 03:16:49;;;;;;;8.82;4.13;;;16.90;77.40;;;;;;3575567;40;20041;-71
2021/06/24 03:19:19;;;;;;;9.00;4.20;;;16.90;77.50;;;;;;3570605;40;20315;-70
2021/06/24 03:22:06;;;;;;;8.35;4.20;;;17.00;77.50;;;;;;3569153;40;20095;-70
2021/06/24 03:24:41;;;;;;;6.55;4.32;;;16.90;77.40;;;;;;3572008;40;20045;-70
2021/06/24 03:27:08;;;;;;;6.60;4.60;;;17.00;77.50;;;;;;3572754;40;20048;-70
2021/06/24 03:29:44;;;;;;;6.78;3.97;;;17.00;77.50;;;;;;3571261;40;20056;-70
2021/06/24 03:32:11;;;;;;;5.25;3.65;;;17.00;77.60;;;;;;3571585;40;20108;-70
2021/06/24 03:34:37;;;;;;;5.75;4.18;;;17.00;77.80;;;;;;3570890;40;20467;-70
2021/06/24 03:37:03;;;;;;;5.00;4.15;;;17.00;77.80;;;;;;3572619;40;20029;-70
2021/06/24 03:39:39;;;;;;;6.28;4.30;;;17.00;77.80;;;;;;3569251;40;20298;-70
2021/06/24 03:42:06;;;;;;;7.47;3.95;;;17.00;77.90;;;;;;3568547;40;20052;-70
2021/06/24 03:44:33;;;;;;;5.05;4.03;;;17.10;78.20;;;;;;3569574;40;20309;-70
2021/06/24 03:46:59;;;;;;;6.72;4.20;;;17.10;78.20;;;;;;3571014;40;20098;-70
2021/06/24 03:49:25;;;;;;;8.25;4.95;;;17.10;78.30;;;;;;3569649;40;20029;-71
2021/06/24 03:51:51;;;;;;;7.43;4.78;;;17.20;78.30;;;;;;3561803;40;20037;-70
2021/06/24 03:54:18;;;;;;;6.95;4.45;;;17.20;79.00;;;;;;3563346;40;20072;-70
2021/06/24 03:56:45;;;;;;;9.25;4.95;;;17.30;78.40;;;;;;3566239;40;20032;-70
2021/06/24 03:59:20;;;;;;;6.63;4.57;;;17.40;78.40;;;;;;3575599;40;20032;-68
2021/06/24 04:01:52;;;;;;;7.30;5.00;;;17.40;78.00;;;;;;3574469;40;20048;-70
2021/06/24 04:04:18;;;;;;;8.90;5.32;;;17.40;77.80;;;;;;3575653;40;20025;-70
2021/06/24 04:06:54;;;;;;;6.68;4.65;;;17.40;77.70;;;;;;3578244;40;20025;-71
2021/06/24 04:09:21;;;;;;;8.85;5.03;;;17.50;77.90;;;;;;3571964;40;20126;-70
2021/06/24 04:11:48;;;;;;;7.63;4.93;;;17.50;77.70;;;;;;3576659;40;20029;-70
2021/06/24 04:14:32;;;;;;;7.22;4.07;;;17.60;77.40;;;;;;3578144;40;20136;-70
2021/06/24 04:17:13;;;;;;;8.50;4.80;;;17.70;77.10;;;;;;3569597;40;20037;-70
2021/06/24 04:19:38;;;;;;;9.50;4.63;;;17.70;77.20;;;;;;3580586;40;20110;-70
2021/06/24 04:22:04;;;;;;;6.53;4.20;;;17.70;77.10;;;;;;3583434;40;20041;-69
2021/06/24 04:24:50;;;;;;;9.53;5.47;;;17.80;77.10;;;;;;3582041;40;20357;-70
2021/06/24 04:27:16;;;;;;;9.50;4.88;;;17.80;76.80;;;;;;3571504;40;20044;-69
2021/06/24 04:29:42;;;;;;;8.15;4.55;;;17.80;76.50;;;;;;3576254;40;20045;-70
2021/06/24 04:32:08;;;;;;;7.18;4.78;;;17.80;76.40;;;;;;3566412;40;20136;-70
2021/06/24 04:34:34;;;;;;;7.65;4.32;;;17.90;76.70;;;;;;3566109;40;20413;-70
2021/06/24 04:37:04;;;;;;;12.45;4.82;;;17.80;76.60;;;;;;3570805;40;20044;-70
2021/06/24 04:39:33;;;;;;;13.30;5.65;;;17.90;76.40;;;;;;3579670;40;20037;-71
2021/06/24 04:41:58;;;;;;;8.27;4.90;;;17.90;76.30;;;;;;3564084;40;20060;-70
2021/06/24 04:44:25;;;;;;;9.05;4.68;;;17.90;76.50;;;;;;3569724;40;20032;-71
2021/06/24 04:46:51;;;;;;;9.65;4.78;;;17.90;76.50;;;;;;3569853;40;20028;-70
2021/06/24 04:49:17;;;;;;;8.13;4.93;;;17.90;76.50;;;;;;3567103;40;20033;-70
2021/06/24 04:52:08;;;;;;;6.63;4.13;;;18.00;76.50;;;;;;3570826;40;20040;-70
2021/06/24 04:55:00;;;;;;;11.65;4.63;;;18.00;76.70;;;;;;3576572;40;20117;-70
2021/06/24 04:57:27;;;;;;;8.05;4.60;;;18.00;76.80;;;;;;3571180;40;20402;-70
2021/06/24 05:00:16;;;;;;;8.32;4.68;;;18.00;76.70;;;;;;3557426;40;20048;-70
2021/06/24 05:03:02;;;;;;;8.60;4.45;;;18.10;76.40;;;;;;3573782;40;20044;-70
2021/06/24 05:05:38;;;;;;;9.70;4.57;;;18.10;76.40;;;;;;3574600;40;20074;-70
2021/06/24 05:08:15;;;;;;;9.93;4.50;;;18.10;76.50;;;;;;3577651;40;20052;-70
2021/06/24 05:10:41;;;;;;;5.18;4.43;;;18.10;76.60;;;;;;3576446;40;20028;-70
2021/06/24 05:13:07;;;;;;;8.35;4.40;;;18.20;76.40;;;;;;3578927;40;20055;-70
2021/06/24 05:15:34;;;;;;;11.40;5.15;;;18.20;75.80;;;;;;3579867;40;20330;-70
2021/06/24 05:18:01;;;;;;;10.52;5.05;;;18.30;75.20;;;;;;3579083;40;20113;-70
2021/06/24 05:20:27;;;;;;;9.02;4.63;;;18.30;75.30;;;;;;3574495;40;20029;-70
2021/06/24 05:22:52;;;;;;;7.95;4.80;;;18.30;75.40;;;;;;3577216;40;20029;-71
2021/06/24 05:25:18;;;;;;;10.18;5.10;;;18.20;75.60;;;;;;3577566;40;20037;-70
2021/06/24 05:27:44;;;;;;;10.82;5.43;;;18.20;75.50;;;;;;3573780;40;20025;-70
2021/06/24 05:30:10;;;;;;;7.95;4.90;;;18.20;75.60;;;;;;3576202;40;20602;-70
2021/06/24 05:32:35;;;;;;;12.48;4.72;;;18.30;75.40;;;;;;3575938;40;20032;-71
2021/06/24 05:35:01;;;;;;;8.82;5.53;;;18.30;75.30;;;;;;3576288;40;20052;-70
2021/06/24 05:37:27;;;;;;;10.45;4.70;;;18.30;75.10;;;;;;3578293;40;20064;-70
2021/06/24 05:39:53;;;;;;;8.02;5.03;;;18.30;75.60;;;;;;3575563;40;20040;-71
2021/06/24 05:42:19;;;;;;;12.98;5.85;;;18.30;75.70;;;;;;3563121;40;20779;-70
2021/06/24 05:44:44;;;;;;;9.05;4.63;;;18.40;75.10;;;;;;3572313;40;20848;-70
2021/06/24 05:47:10;;;;;;;8.70;5.00;;;18.40;74.90;;;;;;3574092;40;20029;-70
2021/06/24 05:49:36;;;;;;;10.00;5.28;;;18.40;75.40;;;;;;3570208;40;20039;-70
2021/06/24 05:52:02;;;;;;;9.82;5.43;;;18.40;75.40;;;;;;3579385;40;20414;-71
2021/06/24 05:54:27;;;;;;;8.50;5.05;;;18.40;75.90;;;;;;3576915;40;20042;-70
2021/06/24 05:56:53;;;;;;;8.70;4.80;;;18.50;75.60;;;;;;3576555;40;20041;-70
2021/06/24 05:59:19;;;;;;;11.38;5.80;;;18.40;75.50;;;;;;3575322;40;20037;-70
2021/06/24 06:01:47;;;;;;;8.02;5.15;;;18.50;75.30;;;;;;3575395;40;20048;-70
2021/06/24 06:04:14;;;;;;;8.50;5.35;;;18.50;75.90;;;;;;3574136;40;20428;-69
2021/06/24 06:06:40;;;;;;;9.00;5.38;;;18.50;76.90;;;;;;3577849;40;20118;-69
2021/06/24 06:09:06;;;;;;;10.48;5.13;;;18.50;77.00;;;;;;3578216;40;20064;-69
2021/06/24 06:11:32;;;;;;;10.25;5.45;;;18.50;77.20;;;;;;3577446;40;20279;-69
2021/06/24 06:13:58;;;;;;;9.30;5.15;;;18.60;77.20;;;;;;3578990;40;20033;-69
2021/06/24 06:16:24;;;;;;;7.68;4.68;;;18.70;77.60;;;;;;3574071;40;20059;-69
2021/06/24 06:18:50;;;;;;;11.05;5.57;;;18.70;78.10;;;;;;3578365;40;20068;-69
2021/06/24 06:21:15;;;;;;;10.68;5.47;;;18.70;77.70;;;;;;3572870;40;20448;-69
2021/06/24 06:23:41;;;;;;;11.20;5.70;;;18.80;77.70;;;;;;3575993;40;20037;-69
2021/06/24 06:26:07;;;;;;;7.68;4.90;;;18.80;77.30;;;;;;3580901;40;20024;-70
2021/06/24 06:28:33;;;;;;;8.93;5.85;;;18.90;77.30;;;;;;3580562;40;20032;-71
2021/06/24 06:30:59;;;;;;;10.77;5.82;;;18.90;77.70;;;;;;3581131;40;20435;-70
2021/06/24 06:33:26;;;;;;;9.43;5.55;;;19.00;77.40;;;;;;3580297;40;20021;-71
2021/06/24 06:35:52;;;;;;;10.73;6.05;;;19.10;77.10;;;;;;3562904;40;20152;-70
2021/06/24 06:38:19;;;;;;;8.95;5.95;;;19.10;77.60;;;;;;3572648;40;20048;-70
2021/06/24 06:40:45;;;;;;;11.82;5.78;;;19.10;77.70;;;;;;3573982;40;20033;-70
2021/06/24 06:43:12;;;;;;;10.40;5.63;;;19.10;77.40;;;;;;3566856;40;20087;-70
2021/06/24 06:45:38;;;;;;;8.80;6.00;;;19.20;76.90;;;;;;3577433;40;20032;-70
2021/06/24 06:48:05;;;;;;;10.10;6.05;;;19.20;77.50;;;;;;3577998;40;20043;-70
2021/06/24 06:50:31;;;;;;;9.27;6.13;;;19.20;76.90;;;;;;3577753;40;20043;-70
2021/06/24 06:52:57;;;;;;;11.05;6.32;;;19.20;76.70;;;;;;3578408;40;20032;-70
2021/06/24 06:55:28;;;;;;;10.88;6.65;;;19.10;76.50;;;;;;3575831;40;20045;-70
2021/06/24 06:57:55;;;;;;;9.43;5.30;;;19.10;76.70;;;;;;3572893;40;20102;-70
2021/06/24 07:00:24;;;;;;;11.15;6.35;;;19.10;77.10;;;;;;3575807;40;20035;-70
2021/06/24 07:02:51;;;;;;;11.88;6.85;;;19.10;76.70;;;;;;3569957;40;20029;-69
2021/06/24 07:05:16;;;;;;;11.95;5.85;;;19.00;77.00;;;;;;3573664;40;20406;-70
2021/06/24 07:07:42;;;;;;;9.80;6.50;;;19.00;77.80;;;;;;3576204;40;20033;-70
2021/06/24 07:10:08;;;;;;;12.20;6.70;;;19.10;78.00;;;;;;3580118;40;20737;-70
2021/06/24 07:12:34;;;;;;;10.45;6.53;;;19.10;77.30;;;;;;3571790;40;20025;-70
2021/06/24 07:15:00;;;;;;;10.70;6.60;;;19.10;78.50;;;;;;3573363;40;20041;-70
2021/06/24 07:17:26;;;;;;;11.27;6.82;;;19.10;79.00;;;;;;3576804;40;20072;-70
2021/06/24 07:19:52;;;;;;;11.10;6.68;;;19.00;79.10;;;;;;3575691;40;20029;-70
2021/06/24 07:22:17;;;;;;;13.30;6.63;;;19.00;78.80;;;;;;3575265;40;20032;-70
2021/06/24 07:24:43;;;;;;;12.82;6.43;;;19.00;78.60;;;;;;3570886;40;20029;-69
2021/06/24 07:27:08;;;;;;;13.80;6.75;;;19.00;79.00;;;;;;3570547;40;20040;-71
2021/06/24 07:29:34;;;;;;;16.05;7.40;;;19.00;78.70;;;;;;3573852;40;20055;-71
2021/06/24 07:32:00;;;;;;;16.13;7.75;;;19.10;79.00;;;;;;3563627;40;20410;-71
2021/06/24 07:34:25;;;;;;;11.05;7.28;;;19.10;78.70;;;;;;3575244;40;20068;-71
2021/06/24 07:36:51;;;;;;;10.05;6.75;;;19.00;78.80;;;;;;3575623;40;20029;-70
2021/06/24 07:39:17;;;;;;;11.73;7.38;;;19.00;79.90;;;;;;3575660;40;20029;-71
2021/06/24 07:41:43;;;;;;;12.90;6.90;;;19.00;80.70;;;;;;3577961;40;20032;-71
2021/06/24 07:44:08;;;;;;;12.27;7.38;;;19.10;81.70;;;;;;3570660;40;20076;-71
2021/06/24 07:46:34;;;;;;;11.25;6.40;;;19.10;81.80;;;;;;3573078;40;20043;-70
2021/06/24 07:49:00;;;;;;;13.75;7.15;;;19.20;81.60;;;;;;3576761;40;20036;-71
2021/06/24 07:51:27;;;;;;;12.40;7.07;;;19.20;81.30;;;;;;3564645;40;20033;-72
2021/06/24 07:53:52;;;;;;;13.48;7.68;;;19.20;81.50;;;;;;3573252;40;20316;-70
2021/06/24 07:56:18;;;;;;;11.52;8.00;;;19.20;82.00;;;;;;3570999;40;20036;-71
2021/06/24 07:58:44;;;;;;;14.35;6.90;;;19.30;82.10;;;;;;3574831;40;20029;-71
2021/06/24 08:01:10;;;;;;;12.63;7.50;;;19.30;82.00;;;;;;3576705;40;20041;-73
2021/06/24 08:03:36;;;;;;;12.77;8.20;;;19.30;82.50;;;;;;3564428;40;20725;-72
2021/06/24 08:06:04;;;;;;;13.60;7.53;;;19.50;80.20;;;;;;3572872;40;20025;-72
2021/06/24 08:08:30;;;;;;;16.77;8.23;;;19.50;79.80;;;;;;3574877;40;20049;-71
2021/06/24 08:10:57;;;;;;;10.65;7.40;;;19.50;80.20;;;;;;3573910;40;20746;-71
2021/06/24 08:13:24;;;;;;;13.00;7.10;;;19.50;81.10;;;;;;3568620;40;20048;-72
2021/06/24 08:15:51;;;;;;;11.02;6.97;;;19.50;81.10;;;;;;3577452;40;20063;-72
2021/06/24 08:18:17;;;;;;;10.63;7.57;;;19.50;81.60;;;;;;3577150;40;20657;-71
2021/06/24 08:20:43;;;;;;;11.75;7.95;;;19.50;82.20;;;;;;3574491;40;20033;-71
2021/06/24 08:23:09;;;;;;;15.02;8.18;;;19.40;81.90;;;;;;3574896;40;20058;-72
2021/06/24 08:25:35;;;;;;;14.45;8.20;;;19.40;82.40;;;;;;3573431;40;20052;-73
2021/06/24 08:28:01;;;;;;;10.43;7.72;;;19.30;82.80;;;;;;3578241;40;20024;-73
2021/06/24 08:30:27;;;;;;;10.02;8.00;;;19.30;83.00;;;;;;3576255;40;20121;-73
2021/06/24 08:32:53;;;;;;;13.85;8.05;;;19.20;83.00;;;;;;3579725;40;20169;-73
2021/06/24 08:35:19;;;;;;;13.02;7.88;;;19.20;82.70;;;;;;3569697;40;20040;-73
2021/06/24 08:37:47;;;;;;;12.30;7.38;;;19.20;82.20;;;;;;3575135;40;20040;-73
2021/06/24 08:40:14;;;;;;;9.68;7.45;;;19.20;82.60;;;;;;3575206;40;20035;-71
2021/06/24 08:42:40;;;;;;;17.40;8.00;;;19.20;83.70;;;;;;3578571;40;20072;-71
2021/06/24 08:45:08;;;;;;;12.75;7.50;;;19.20;84.30;;;;;;3577623;40;20036;-71
2021/06/24 08:47:35;;;;;;;9.38;7.00;;;19.20;84.30;;;;;;3567733;40;20041;-72
2021/06/24 08:50:02;;;;;;;10.05;7.18;;;19.30;84.00;;;;;;3569263;40;20025;-73
2021/06/24 08:52:28;;;;;;;12.07;6.80;;;19.40;84.30;;;;;;3574313;40;20024;-71
2021/06/24 08:54:54;;;;;;;12.13;6.07;;;19.50;84.00;;;;;;3575579;40;20036;-69
2021/06/24 08:57:20;;;;;;;10.38;6.25;;;19.50;83.60;;;;;;3575191;40;20044;-73
2021/06/24 08:59:46;;;;;;;11.73;6.22;;;19.60;84.00;;;;;;3565112;40;20059;-72
2021/06/24 09:02:16;;;;;;;14.35;6.18;;;19.60;83.70;;;;;;3576256;40;20419;-73
2021/06/24 09:04:47;;;;;;;11.27;6.22;;;19.60;83.30;;;;;;3561009;40;20113;-73
2021/06/24 09:07:24;;;;;;;11.85;6.93;;;19.70;83.80;;;;;;3578020;40;20040;-73
2021/06/24 09:09:51;;;;;;;13.27;6.45;;;19.70;83.80;;;;;;3578811;40;20040;-72
2021/06/24 09:12:17;;;;;;;12.25;7.07;;;19.70;84.10;;;;;;3574806;40;20040;-73
2021/06/24 09:14:47;;;;;;;11.18;6.65;;;19.70;84.20;;;;;;3571568;40;20122;-73
2021/06/24 09:17:38;;;;;;;8.63;6.65;;;19.80;83.90;;;;;;3564534;40;20068;-73
2021/06/24 09:20:07;;;;;;;10.05;6.63;;;19.80;83.80;;;;;;3568707;40;20048;-71
2021/06/24 09:22:32;;;;;;;14.73;7.90;;;19.80;83.80;;;;;;3576802;40;20084;-73
2021/06/24 09:24:58;;;;;;;10.82;6.53;;;19.90;83.70;;;;;;3574749;40;20592;-70
2021/06/24 09:27:27;;;;;;;11.35;6.38;;;19.90;83.00;;;;;;3573709;40;20049;-74
2021/06/24 09:30:02;;;;;;;13.15;7.07;;;19.90;83.70;;;;;;3562615;40;20404;-74
2021/06/24 09:32:36;;;;;;;11.15;7.93;;;19.90;83.90;;;;;;3573351;40;20051;-74
2021/06/24 09:35:05;;;;;;;13.75;7.68;;;20.00;83.90;;;;;;3578237;40;20040;-73
2021/06/24 09:38:00;;;;;;;13.50;8.00;;;20.00;84.00;;;;;;3570337;40;20156;-67
2021/06/24 09:40:35;;;;;;;12.18;7.25;;;20.00;84.00;;;;;;3569697;40;20040;-69
2021/06/24 09:43:01;;;;;;;10.25;6.55;;;20.00;82.50;;;;;;3562095;40;20049;-70
2021/06/24 09:45:27;;;;;;;12.32;6.40;;;20.00;82.30;;;;;;3576216;40;20753;-71
2021/06/24 09:48:09;;;;;;;11.52;6.25;;;20.10;81.60;;;;;;3573182;40;20040;-71
2021/06/24 09:50:36;;;;;;;9.27;6.43;;;20.20;81.70;;;;;;3573690;40;20086;-71
2021/06/24 09:53:13;;;;;;;9.90;6.60;;;20.40;80.60;;;;;;3570467;40;20075;-70
2021/06/24 09:55:40;;;;;;;9.82;6.07;;;20.50;80.10;;;;;;3571840;40;20032;-71
2021/06/24 09:58:16;;;;;;;10.75;6.82;;;20.60;79.60;;;;;;3573477;40;20021;-73
2021/06/24 10:00:53;;;;;;;46.15;7.38;;;20.70;78.90;;;;;;3575520;40;20036;-70
2021/06/24 10:03:20;;;;;;;18.05;6.72;;;20.80;78.60;;;;;;3564814;40;20021;-70
2021/06/24 10:05:46;;;;;;;16.75;6.70;;;21.00;78.40;;;;;;3566359;40;20036;-70
2021/06/24 10:08:13;;;;;;;16.23;7.45;;;21.10;76.90;;;;;;3570866;40;21004;-70
2021/06/24 10:10:41;;;;;;;12.68;6.90;;;21.20;77.40;;;;;;3571209;40;20041;-70
2021/06/24 10:13:08;;;;;;;16.63;6.97;;;21.30;77.10;;;;;;3569911;40;20131;-78
2021/06/24 10:15:35;;;;;;;13.35;6.93;;;21.40;77.20;;;;;;3574350;40;20044;-70
2021/06/24 10:18:01;;;;;;;16.10;7.50;;;21.40;78.20;;;;;;3573197;40;20029;-69
2021/06/24 10:20:29;;;;;;;15.23;7.85;;;21.40;78.00;;;;;;3574565;40;20040;-70
2021/06/24 10:23:04;;;;;;;11.93;7.63;;;21.40;77.60;;;;;;3573530;40;20032;-72
2021/06/24 10:25:30;;;;;;;11.45;6.60;;;21.50;78.10;;;;;;3570717;40;20065;-72
2021/06/24 10:27:57;;;;;;;12.93;7.63;;;21.60;78.30;;;;;;3577512;40;20048;-71
2021/06/24 10:30:24;;;;;;;11.63;7.40;;;21.70;75.70;;;;;;3577789;40;20021;-66
2021/06/24 10:33:02;;;;;;;11.40;8.13;;;21.60;76.70;;;;;;3579131;40;20033;-66
2021/06/24 10:35:36;;;;;;;12.10;6.95;;;21.70;75.40;;;;;;3576261;40;20028;-66
2021/06/24 10:38:03;;;;;;;11.02;7.32;;;21.60;75.90;;;;;;3576525;40;20158;-66
2021/06/24 10:40:33;;;;;;;13.50;7.68;;;21.60;77.10;;;;;;3576880;40;20084;-65
2021/06/24 10:43:11;;;;;;;14.30;7.90;;;21.70;77.50;;;;;;3579224;40;20043;-66
2021/06/24 10:45:38;;;;;;;15.63;8.48;;;21.70;77.80;;;;;;3579744;40;20125;-66
2021/06/24 10:48:27;;;;;;;13.70;9.55;;;21.70;78.00;;;;;;3578870;40;20029;-66
2021/06/24 10:50:56;;;;;;;14.75;7.68;;;21.70;77.10;;;;;;3577556;40;20428;-66
2021/06/24 10:53:21;;;;;;;13.15;7.85;;;21.60;78.40;;;;;;3575919;40;20131;-66
2021/06/24 10:55:51;;;;;;;10.63;8.45;;;21.60;77.90;;;;;;3566429;40;20052;-65
2021/06/24 10:58:30;;;;;;;14.43;7.72;;;21.50;78.40;;;;;;3566619;40;20032;-71
2021/06/24 11:00:57;;;;;;;12.95;8.18;;;21.50;78.00;;;;;;3579651;40;20379;-66
2021/06/24 11:03:31;;;;;;;12.43;7.85;;;21.50;78.60;;;;;;3578170;40;20025;-65
2021/06/24 11:06:15;;;;;;;13.52;8.30;;;21.40;78.80;;;;;;3579074;40;20031;-66
2021/06/24 11:08:42;;;;;;;13.90;9.00;;;21.50;78.60;;;;;;3569857;40;20480;-66
2021/06/24 11:11:12;;;;;;;14.45;7.97;;;21.60;77.70;;;;;;3574313;40;20724;-67
2021/06/24 11:16:15;;;;;;;12.52;7.65;;;21.60;78.50;;;;;;3578629;40;20047;-66
2021/06/24 11:18:44;;;;;;;13.65;8.10;;;21.70;78.40;;;;;;3570604;40;20036;-66
2021/06/24 11:21:32;;;;;;;9.85;8.25;;;21.80;78.50;;;;;;3578946;40;20049;-67
2021/06/24 11:24:00;;;;;;;9.52;7.35;;;21.80;77.40;;;;;;3573392;40;20072;-66
2021/06/24 11:26:26;;;;;;;11.13;7.38;;;21.90;77.90;;;;;;3565674;40;20049;-66
2021/06/24 11:31:22;;;;;;;12.43;8.00;;;21.90;78.50;;;;;;3577596;40;20919;-66
2021/06/24 11:34:10;;;;;;;10.35;7.63;;;22.00;77.10;;;;;;3579539;40;20133;-66
2021/06/24 11:36:36;;;;;;;9.90;7.10;;;22.20;76.00;;;;;;3571516;40;20517;-64
2021/06/24 11:39:03;;;;;;;13.23;7.63;;;22.20;76.60;;;;;;3572646;40;20072;-67
2021/06/24 11:41:29;;;;;;;14.35;8.52;;;22.20;77.00;;;;;;3568851;40;20037;-67
2021/06/24 11:44:03;;;;;;;10.35;7.40;;;22.30;76.70;;;;;;3565723;40;20562;-66
2021/06/24 11:46:31;;;;;;;11.25;7.53;;;22.40;76.80;;;;;;3574620;40;20047;-67
2021/06/24 12:05:07;;;;;;;12.13;6.93;;;22.50;74.50;;;;;;3575889;40;20036;-66
2021/06/24 12:07:34;;;;;;;9.63;7.35;;;22.40;74.10;;;;;;3569745;40;20041;-66
2021/06/24 12:10:00;;;;;;;11.65;7.40;;;22.40;75.10;;;;;;3569232;40;20041;-65
2021/06/24 12:12:26;;;;;;;11.63;7.05;;;22.50;74.00;;;;;;3573978;40;20029;-65
2021/06/24 12:14:55;;;;;;;9.10;6.60;;;22.50;74.80;;;;;;3574490;40;20047;-67
2021/06/24 12:17:28;;;;;;;9.98;6.25;;;22.60;73.90;;;;;;3567406;40;20048;-66
2021/06/24 12:20:04;;;;;;;12.35;6.68;;;22.80;73.20;;;;;;3572135;40;20138;-66
2021/06/24 12:22:39;;;;;;;8.43;6.55;;;22.90;71.60;;;;;;3568222;40;20045;-66
2021/06/24 12:25:12;;;;;;;8.70;6.75;;;23.10;72.30;;;;;;3570208;40;20048;-66
2021/06/24 12:27:44;;;;;;;9.50;6.50;;;23.10;72.60;;;;;;3569861;40;20069;-66
2021/06/24 12:30:26;;;;;;;9.18;6.28;;;23.10;71.60;;;;;;3575628;40;20753;-67
2021/06/24 12:32:54;;;;;;;9.23;5.95;;;23.10;71.50;;;;;;3568757;40;20021;-67
2021/06/24 12:35:37;;;;;;;8.90;5.95;;;23.10;70.00;;;;;;3577293;40;20031;-70
2021/06/24 12:38:08;;;;;;;8.00;5.28;;;23.10;71.60;;;;;;3570491;40;20028;-67
2021/06/24 12:40:47;;;;;;;8.05;5.35;;;23.00;71.10;;;;;;3574847;40;20032;-67
2021/06/24 12:43:18;;;;;;;9.40;5.60;;;22.90;70.80;;;;;;3571124;40;20028;-67
2021/06/24 12:45:45;;;;;;;11.15;6.90;;;22.80;71.90;;;;;;3564994;40;20066;-66
2021/06/24 12:48:26;;;;;;;12.68;7.38;;;22.70;72.10;;;;;;3574712;40;20033;-66
2021/06/24 12:50:53;;;;;;;10.95;6.68;;;22.80;72.90;;;;;;3574590;40;20512;-66
2021/06/24 12:53:31;;;;;;;8.43;7.13;;;22.70;71.10;;;;;;3573119;40;20035;-66
2021/06/24 12:55:58;;;;;;;11.65;8.02;;;22.60;73.30;;;;;;3576888;40;20044;-67
2021/06/24 12:58:31;;;;;;;8.60;7.60;;;22.60;72.70;;;;;;3578246;40;20149;-66
2021/06/24 13:01:12;;;;;;;11.63;7.60;;;22.50;74.10;;;;;;3578339;40;20155;-67
2021/06/24 13:03:44;;;;;;;9.18;7.18;;;22.50;73.30;;;;;;3574284;40;20064;-70
2021/06/24 13:06:18;;;;;;;10.18;7.30;;;22.50;72.90;;;;;;3576665;40;20033;-66
2021/06/24 13:09:04;;;;;;;10.80;6.63;;;22.40;74.80;;;;;;3578781;40;20032;-67
2021/06/24 13:11:37;;;;;;;8.57;6.88;;;22.40;74.40;;;;;;3580523;40;20037;-66
2021/06/24 13:14:16;;;;;;;11.15;6.97;;;22.40;76.50;;;;;;3579026;40;20052;-69